sensor_id;sensor_type;location;lat;lon;timestamp;pressure;altitude;pressure_sealevel;temperature;humidity
9257;BME280;4665;51.368;6.782;2022-11-09T00:02:06;100349.84;;;14.56;100.00
9257;BME280;4665;51.368;6.782;2022-11-09T00:04:32;100346.53;;;14.54;100.00
9257;BME280;4665;51.368;6.782;2022-11-09T00:06:57;100343.19;;;14.52;100.00
9257;BME280;4665;51.368;6.782;2022-11-09T00:09:22;100350.03;;;14.55;100.00
9257;BME280;4665;51.368;6.782;2022-11-09T00:11:48;100339.94;;;14.57;100.00
9257;BME280;4665;51.368;6.782;2022-11-09T00:14:15;100335.81;;;14.54;100.00
9257;BME280;4665;51.368;6.782;2022-11-09T00:16:40;100342.16;;;14.53;100.00
9257;BME280;4665;51.368;6.782;2022-11-09T00:19:06;100334.31;;;14.51;100.00
9257;BME280;4665;51.368;6.782;2022-11-09T00:21:31;100332.84;;;14.49;100.00
9257;BME280;4665;51.368;6.782;2022-11-09T00:23:56;100332.13;;;14.55;100.00
9257;BME280;4665;51.368;6.782;2022-11-09T00:26:22;100333.50;;;14.51;100.00
9257;BME280;4665;51.368;6.782;2022-11-09T00:28:48;100326.03;;;14.46;100.00
9257;BME280;4665;51.368;6.782;2022-11-09T00:31:16;100329.34;;;14.48;100.00
9257;BME280;4665;51.368;6.782;2022-11-09T00:33:46;100330.56;;;14.46;100.00
9257;BME280;4665;51.368;6.782;2022-11-09T00:36:16;100335.28;;;14.44;100.00
9257;BME280;4665;51.368;6.782;2022-11-09T00:38:46;100322.44;;;14.39;100.00
9257;BME280;4665;51.368;6.782;2022-11-09T00:41:12;100324.28;;;14.39;100.00
9257;BME280;4665;51.368;6.782;2022-11-09T00:43:37;100314.34;;;14.32;100.00
9257;BME280;4665;51.368;6.782;2022-11-09T00:46:03;100317.84;;;14.33;100.00
9257;BME280;4665;51.368;6.782;2022-11-09T00:48:28;100320.06;;;14.29;100.00
9257;BME280;4665;51.368;6.782;2022-11-09T00:50:55;100323.50;;;14.23;100.00
9257;BME280;4665;51.368;6.782;2022-11-09T00:53:22;100315.47;;;14.23;100.00
9257;BME280;4665;51.368;6.782;2022-11-09T00:55:59;100321.00;;;14.22;100.00
9257;BME280;4665;51.368;6.782;2022-11-09T00:58:26;100321.56;;;14.17;100.00
9257;BME280;4665;51.368;6.782;2022-11-09T01:00:54;100323.44;;;14.17;100.00
9257;BME280;4665;51.368;6.782;2022-11-09T01:03:21;100331.28;;;14.18;100.00
9257;BME280;4665;51.368;6.782;2022-11-09T01:05:46;100333.13;;;14.18;100.00
9257;BME280;4665;51.368;6.782;2022-11-09T01:08:13;100332.69;;;14.14;100.00
9257;BME280;4665;51.368;6.782;2022-11-09T01:10:40;100335.34;;;14.14;100.00
9257;BME280;4665;51.368;6.782;2022-11-09T01:13:05;100337.66;;;14.17;100.00
9257;BME280;4665;51.368;6.782;2022-11-09T01:15:31;100334.31;;;14.15;100.00
9257;BME280;4665;51.368;6.782;2022-11-09T01:17:57;100341.34;;;14.16;100.00
9257;BME280;4665;51.368;6.782;2022-11-09T01:20:22;100347.06;;;14.13;100.00
9257;BME280;4665;51.368;6.782;2022-11-09T01:22:48;100344.59;;;14.12;100.00
9257;BME280;4665;51.368;6.782;2022-11-09T01:25:14;100347.06;;;14.13;100.00
9257;BME280;4665;51.368;6.782;2022-11-09T01:27:39;100347.63;;;14.08;100.00
9257;BME280;4665;51.368;6.782;2022-11-09T01:30:05;100356.13;;;14.12;100.00
9257;BME280;4665;51.368;6.782;2022-11-09T01:32:31;100351.81;;;14.11;100.00
9257;BME280;4665;51.368;6.782;2022-11-09T01:34:57;100365.22;;;14.11;100.00
9257;BME280;4665;51.368;6.782;2022-11-09T01:37:22;100365.22;;;14.11;100.00
9257;BME280;4665;51.368;6.782;2022-11-09T01:39:48;100347.94;;;14.14;100.00
9257;BME280;4665;51.368;6.782;2022-11-09T01:42:13;100359.47;;;14.14;100.00
9257;BME280;4665;51.368;6.782;2022-11-09T01:44:39;100363.13;;;14.13;100.00
9257;BME280;4665;51.368;6.782;2022-11-09T01:47:20;100363.13;;;14.13;100.00
9257;BME280;4665;51.368;6.782;2022-11-09T01:49:52;100356.53;;;14.09;100.00
9257;BME280;4665;51.368;6.782;2022-11-09T01:52:32;100359.38;;;14.07;100.00
9257;BME280;4665;51.368;6.782;2022-11-09T01:55:09;100359.94;;;14.03;100.00
9257;BME280;4665;51.368;6.782;2022-11-09T01:57:46;100355.97;;;13.99;100.00
9257;BME280;4665;51.368;6.782;2022-11-09T02:00:15;100362.72;;;13.95;100.00
9257;BME280;4665;51.368;6.782;2022-11-09T02:02:52;100351.56;;;13.91;100.00
9257;BME280;4665;51.368;6.782;2022-11-09T02:05:24;100354.41;;;13.89;100.00
9257;BME280;4665;51.368;6.782;2022-11-09T02:07:51;100355.44;;;13.88;100.00
9257;BME280;4665;51.368;6.782;2022-11-09T02:10:24;100352.28;;;13.85;100.00
9257;BME280;4665;51.368;6.782;2022-11-09T02:12:52;100350.81;;;13.82;100.00
9257;BME280;4665;51.368;6.782;2022-11-09T02:15:20;100345.19;;;13.77;100.00
9257;BME280;4665;51.368;6.782;2022-11-09T02:17:49;100356.94;;;13.76;100.00
9257;BME280;4665;51.368;6.782;2022-11-09T02:20:16;100362.28;;;13.76;100.00
9257;BME280;4665;51.368;6.782;2022-11-09T02:22:42;100349.91;;;13.75;100.00
9257;BME280;4665;51.368;6.782;2022-11-09T02:25:13;100352.31;;;13.70;100.00
9257;BME280;4665;51.368;6.782;2022-11-09T02:27:40;100349.63;;;13.70;100.00
9257;BME280;4665;51.368;6.782;2022-11-09T02:30:08;100360.34;;;13.70;100.00
9257;BME280;4665;51.368;6.782;2022-11-09T02:32:33;100351.28;;;13.71;100.00
9257;BME280;4665;51.368;6.782;2022-11-09T02:34:59;100349.63;;;13.70;100.00
9257;BME280;4665;51.368;6.782;2022-11-09T02:37:29;100349.00;;;13.68;100.00
9257;BME280;4665;51.368;6.782;2022-11-09T02:39:56;100353.69;;;13.66;100.00
9257;BME280;4665;51.368;6.782;2022-11-09T02:42:22;100352.03;;;13.65;100.00
9257;BME280;4665;51.368;6.782;2022-11-09T02:44:52;100352.22;;;13.63;100.00
9257;BME280;4665;51.368;6.782;2022-11-09T02:47:19;100347.91;;;13.62;100.00
9257;BME280;4665;51.368;6.782;2022-11-09T02:49:45;100339.78;;;13.56;100.00
9257;BME280;4665;51.368;6.782;2022-11-09T02:52:10;100342.72;;;13.61;100.00
9257;BME280;4665;51.368;6.782;2022-11-09T02:54:36;100342.44;;;13.56;100.00
9257;BME280;4665;51.368;6.782;2022-11-09T02:57:01;100353.97;;;13.56;100.00
9257;BME280;4665;51.368;6.782;2022-11-09T02:59:27;100354.16;;;13.55;100.00
9257;BME280;4665;51.368;6.782;2022-11-09T03:01:52;100353.72;;;13.51;100.00
9257;BME280;4665;51.368;6.782;2022-11-09T03:04:17;100349.19;;;13.52;100.00
9257;BME280;4665;51.368;6.782;2022-11-09T03:06:43;100363.84;;;13.56;100.00
9257;BME280;4665;51.368;6.782;2022-11-09T03:09:10;100372.22;;;13.53;100.00
9257;BME280;4665;51.368;6.782;2022-11-09T03:11:38;100364.75;;;13.48;100.00
9257;BME280;4665;51.368;6.782;2022-11-09T03:14:04;100368.91;;;13.51;100.00
9257;BME280;4665;51.368;6.782;2022-11-09T03:16:30;100367.91;;;13.52;100.00
9257;BME280;4665;51.368;6.782;2022-11-09T03:18:56;100369.56;;;13.53;100.00
9257;BME280;4665;51.368;6.782;2022-11-09T03:21:22;100363.56;;;13.51;100.00
9257;BME280;4665;51.368;6.782;2022-11-09T03:23:48;100373.44;;;13.50;100.00
9257;BME280;4665;51.368;6.782;2022-11-09T03:26:16;100371.88;;;13.56;100.00
9257;BME280;4665;51.368;6.782;2022-11-09T03:28:42;100366.88;;;13.53;100.00
9257;BME280;4665;51.368;6.782;2022-11-09T03:31:08;100362.84;;;13.57;100.00
9257;BME280;4665;51.368;6.782;2022-11-09T03:33:33;100371.88;;;13.56;100.00
9257;BME280;4665;51.368;6.782;2022-11-09T03:35:59;100368.19;;;13.57;100.00
9257;BME280;4665;51.368;6.782;2022-11-09T03:38:24;100381.38;;;13.58;100.00
9257;BME280;4665;51.368;6.782;2022-11-09T03:40:50;100382.03;;;13.60;100.00
9257;BME280;4665;51.368;6.782;2022-11-09T03:43:16;100382.88;;;13.61;100.00
9257;BME280;4665;51.368;6.782;2022-11-09T03:45:41;100383.97;;;13.66;100.00
9257;BME280;4665;51.368;6.782;2022-11-09T03:48:07;100383.50;;;13.63;100.00
9257;BME280;4665;51.368;6.782;2022-11-09T03:50:34;100393.84;;;13.66;100.00
9257;BME280;4665;51.368;6.782;2022-11-09T03:53:00;100395.03;;;13.63;100.00
9257;BME280;4665;51.368;6.782;2022-11-09T03:55:27;100398.19;;;13.67;100.00
9257;BME280;4665;51.368;6.782;2022-11-09T03:57:53;100401.50;;;13.69;100.00
9257;BME280;4665;51.368;6.782;2022-11-09T04:00:20;100396.78;;;13.71;100.00
9257;BME280;4665;51.368;6.782;2022-11-09T04:02:46;100397.00;;;13.70;100.00
9257;BME280;4665;51.368;6.782;2022-11-09T04:05:12;100383.97;;;13.66;100.00
9257;BME280;4665;51.368;6.782;2022-11-09T04:07:40;100391.81;;;13.68;100.00
9257;BME280;4665;51.368;6.782;2022-11-09T04:10:10;100395.16;;;13.70;100.00
9257;BME280;4665;51.368;6.782;2022-11-09T04:12:36;100394.13;;;13.71;100.00
9257;BME280;4665;51.368;6.782;2022-11-09T04:15:01;100405.84;;;13.70;100.00
9257;BME280;4665;51.368;6.782;2022-11-09T04:17:27;100390.78;;;13.69;100.00
9257;BME280;4665;51.368;6.782;2022-11-09T04:19:52;100395.53;;;13.67;100.00
9257;BME280;4665;51.368;6.782;2022-11-09T04:22:17;100387.66;;;13.65;100.00
9257;BME280;4665;51.368;6.782;2022-11-09T04:24:43;100402.53;;;13.68;100.00
9257;BME280;4665;51.368;6.782;2022-11-09T04:27:08;100389.69;;;13.63;100.00
9257;BME280;4665;51.368;6.782;2022-11-09T04:29:34;100400.88;;;13.67;100.00
9257;BME280;4665;51.368;6.782;2022-11-09T04:31:59;100403.06;;;13.63;100.00
9257;BME280;4665;51.368;6.782;2022-11-09T04:34:25;100400.41;;;13.63;100.00
9257;BME280;4665;51.368;6.782;2022-11-09T04:36:50;100416.06;;;13.66;100.00
9257;BME280;4665;51.368;6.782;2022-11-09T04:39:16;100416.94;;;13.67;100.00
9257;BME280;4665;51.368;6.782;2022-11-09T04:41:41;100422.28;;;13.67;100.00
9257;BME280;4665;51.368;6.782;2022-11-09T04:44:07;100418.09;;;13.64;100.00
9257;BME280;4665;51.368;6.782;2022-11-09T04:46:32;100421.81;;;13.63;100.00
9257;BME280;4665;51.368;6.782;2022-11-09T04:48:58;100428.00;;;13.64;100.00
9257;BME280;4665;51.368;6.782;2022-11-09T04:51:23;100435.84;;;13.65;100.00
9257;BME280;4665;51.368;6.782;2022-11-09T04:53:49;100433.72;;;13.61;100.00
9257;BME280;4665;51.368;6.782;2022-11-09T04:56:14;100440.72;;;13.62;100.00
9257;BME280;4665;51.368;6.782;2022-11-09T04:58:39;100447.16;;;13.53;100.00
9257;BME280;4665;51.368;6.782;2022-11-09T05:01:08;100441.91;;;13.44;100.00
9257;BME280;4665;51.368;6.782;2022-11-09T05:03:34;100439.94;;;13.38;100.00
9257;BME280;4665;51.368;6.782;2022-11-09T05:06:01;100440.69;;;13.32;100.00
9257;BME280;4665;51.368;6.782;2022-11-09T05:08:46;100446.72;;;13.26;100.00
9257;BME280;4665;51.368;6.782;2022-11-09T05:11:11;100435.06;;;13.19;100.00
9257;BME280;4665;51.368;6.782;2022-11-09T05:13:37;100434.78;;;13.14;100.00
9257;BME280;4665;51.368;6.782;2022-11-09T05:16:02;100440.75;;;13.16;100.00
9257;BME280;4665;51.368;6.782;2022-11-09T05:18:28;100436.06;;;13.18;100.00
9257;BME280;4665;51.368;6.782;2022-11-09T05:20:58;100442.06;;;13.20;100.00
9257;BME280;4665;51.368;6.782;2022-11-09T05:23:23;100429.91;;;13.17;100.00
9257;BME280;4665;51.368;6.782;2022-11-09T05:26:07;100436.56;;;13.21;100.00
9257;BME280;4665;51.368;6.782;2022-11-09T05:28:32;100444.22;;;13.24;100.00
9257;BME280;4665;51.368;6.782;2022-11-09T05:30:58;100448.72;;;13.24;100.00
9257;BME280;4665;51.368;6.782;2022-11-09T05:33:23;100451.78;;;13.21;100.00
9257;BME280;4665;51.368;6.782;2022-11-09T05:35:49;100456.47;;;13.19;100.00
9257;BME280;4665;51.368;6.782;2022-11-09T05:38:14;100454.78;;;13.18;100.00
9257;BME280;4665;51.368;6.782;2022-11-09T05:40:39;100441.53;;;13.01;100.00
9257;BME280;4665;51.368;6.782;2022-11-09T05:43:05;100432.94;;;12.91;100.00
9257;BME280;4665;51.368;6.782;2022-11-09T05:45:30;100432.03;;;12.76;100.00
9257;BME280;4665;51.368;6.782;2022-11-09T05:47:58;100421.22;;;12.69;100.00
9257;BME280;4665;51.368;6.782;2022-11-09T05:50:23;100416.06;;;12.68;100.00
9257;BME280;4665;51.368;6.782;2022-11-09T05:52:50;100407.41;;;12.66;100.00
9257;BME280;4665;51.368;6.782;2022-11-09T05:55:17;100417.59;;;12.62;100.00
9257;BME280;4665;51.368;6.782;2022-11-09T05:57:42;100420.25;;;12.62;100.00
9257;BME280;4665;51.368;6.782;2022-11-09T06:00:08;100420.94;;;12.64;100.00
9257;BME280;4665;51.368;6.782;2022-11-09T06:02:34;100422.09;;;12.61;100.00
9257;BME280;4665;51.368;6.782;2022-11-09T06:04:59;100417.78;;;12.60;100.00
9257;BME280;4665;51.368;6.782;2022-11-09T06:07:41;100415.28;;;12.59;100.00
9257;BME280;4665;51.368;6.782;2022-11-09T06:10:08;100421.28;;;12.61;100.00
9257;BME280;4665;51.368;6.782;2022-11-09T06:12:41;100423.59;;;12.64;100.00
9257;BME280;4665;51.368;6.782;2022-11-09T06:15:07;100416.09;;;12.59;100.00
9257;BME280;4665;51.368;6.782;2022-11-09T06:17:33;100413.09;;;12.62;100.00
9257;BME280;4665;51.368;6.782;2022-11-09T06:19:58;100425.75;;;12.69;100.00
9257;BME280;4665;51.368;6.782;2022-11-09T06:22:25;100424.75;;;12.70;100.00
9257;BME280;4665;51.368;6.782;2022-11-09T06:24:50;100417.38;;;12.72;100.00
9257;BME280;4665;51.368;6.782;2022-11-09T06:27:16;100414.34;;;12.75;100.00
9257;BME280;4665;51.368;6.782;2022-11-09T06:29:41;100433.06;;;12.75;100.00
9257;BME280;4665;51.368;6.782;2022-11-09T06:32:19;100435.38;;;12.78;100.00
9257;BME280;4665;51.368;6.782;2022-11-09T06:34:44;100436.56;;;12.75;100.00
9257;BME280;4665;51.368;6.782;2022-11-09T06:37:13;100439.53;;;12.80;100.00
9257;BME280;4665;51.368;6.782;2022-11-09T06:39:41;100436.03;;;12.80;100.00
9257;BME280;4665;51.368;6.782;2022-11-09T06:42:06;100433.53;;;12.78;100.00
9257;BME280;4665;51.368;6.782;2022-11-09T06:44:34;100450.88;;;12.82;100.00
9257;BME280;4665;51.368;6.782;2022-11-09T06:47:00;100453.38;;;12.84;100.00
9257;BME280;4665;51.368;6.782;2022-11-09T06:49:25;100446.03;;;12.86;100.00
9257;BME280;4665;51.368;6.782;2022-11-09T06:51:51;100454.69;;;12.88;100.00
9257;BME280;4665;51.368;6.782;2022-11-09T06:54:16;100456.72;;;12.86;100.00
9257;BME280;4665;51.368;6.782;2022-11-09T06:56:53;100450.34;;;12.87;100.00
9257;BME280;4665;51.368;6.782;2022-11-09T06:59:19;100451.00;;;12.89;100.00
9257;BME280;4665;51.368;6.782;2022-11-09T07:01:52;100455.31;;;12.90;100.00
9257;BME280;4665;51.368;6.782;2022-11-09T07:04:18;100461.19;;;12.85;100.00
9257;BME280;4665;51.368;6.782;2022-11-09T07:06:44;100461.72;;;12.81;100.00
9257;BME280;4665;51.368;6.782;2022-11-09T07:09:17;100475.75;;;12.83;100.00
9257;BME280;4665;51.368;6.782;2022-11-09T07:11:42;100470.94;;;12.78;100.00
9257;BME280;4665;51.368;6.782;2022-11-09T07:14:16;100482.66;;;12.77;100.00
9257;BME280;4665;51.368;6.782;2022-11-09T07:16:41;100482.81;;;12.76;100.00
9257;BME280;4665;51.368;6.782;2022-11-09T07:19:13;100482.81;;;12.76;100.00
9257;BME280;4665;51.368;6.782;2022-11-09T07:21:38;100490.19;;;12.74;100.00
9257;BME280;4665;51.368;6.782;2022-11-09T07:24:04;100494.69;;;12.73;100.00
9257;BME280;4665;51.368;6.782;2022-11-09T07:26:29;100479.84;;;12.71;100.00
9257;BME280;4665;51.368;6.782;2022-11-09T07:29:10;100492.22;;;12.72;100.00
9257;BME280;4665;51.368;6.782;2022-11-09T07:31:35;100494.41;;;12.68;100.00
9257;BME280;4665;51.368;6.782;2022-11-09T07:34:01;100497.91;;;12.69;100.00
9257;BME280;4665;51.368;6.782;2022-11-09T07:36:29;100494.56;;;12.67;100.00
9257;BME280;4665;51.368;6.782;2022-11-09T07:38:58;100496.03;;;12.69;100.00
9257;BME280;4665;51.368;6.782;2022-11-09T07:41:23;100499.25;;;12.64;100.00
9257;BME280;4665;51.368;6.782;2022-11-09T07:43:50;100504.78;;;12.63;100.00
9257;BME280;4665;51.368;6.782;2022-11-09T07:46:16;100508.44;;;12.62;100.00
9257;BME280;4665;51.368;6.782;2022-11-09T07:48:41;100507.63;;;12.61;100.00
9257;BME280;4665;51.368;6.782;2022-11-09T07:51:07;100511.47;;;12.59;100.00
9257;BME280;4665;51.368;6.782;2022-11-09T07:53:32;100516.66;;;12.60;100.00
9257;BME280;4665;51.368;6.782;2022-11-09T07:56:00;100514.00;;;12.60;100.00
9257;BME280;4665;51.368;6.782;2022-11-09T07:58:28;100523.66;;;12.61;100.00
9257;BME280;4665;51.368;6.782;2022-11-09T08:00:54;100523.66;;;12.61;100.00
9257;BME280;4665;51.368;6.782;2022-11-09T08:03:26;100525.34;;;12.62;100.00
9257;BME280;4665;51.368;6.782;2022-11-09T08:05:51;100529.66;;;12.63;100.00
9257;BME280;4665;51.368;6.782;2022-11-09T08:08:17;100529.81;;;12.62;100.00
9257;BME280;4665;51.368;6.782;2022-11-09T08:10:43;100522.00;;;12.60;100.00
9257;BME280;4665;51.368;6.782;2022-11-09T08:13:16;100520.00;;;12.62;100.00
9257;BME280;4665;51.368;6.782;2022-11-09T08:15:41;100530.50;;;12.64;100.00
9257;BME280;4665;51.368;6.782;2022-11-09T08:18:13;100531.31;;;12.64;100.00
9257;BME280;4665;51.368;6.782;2022-11-09T08:20:39;100532.34;;;12.63;100.00
9257;BME280;4665;51.368;6.782;2022-11-09T08:23:06;100529.50;;;12.65;100.00
9257;BME280;4665;51.368;6.782;2022-11-09T08:25:34;100541.38;;;12.62;100.00
9257;BME280;4665;51.368;6.782;2022-11-09T08:28:00;100541.84;;;12.66;100.00
9257;BME280;4665;51.368;6.782;2022-11-09T08:30:26;100559.03;;;12.72;100.00
9257;BME280;4665;51.368;6.782;2022-11-09T08:32:51;100550.00;;;12.73;100.00
9257;BME280;4665;51.368;6.782;2022-11-09T08:35:21;100546.63;;;12.79;100.00
9257;BME280;4665;51.368;6.782;2022-11-09T08:37:48;100561.28;;;12.83;100.00
9257;BME280;4665;51.368;6.782;2022-11-09T08:40:16;100552.09;;;12.85;100.00
9257;BME280;4665;51.368;6.782;2022-11-09T08:42:42;100545.59;;;12.88;100.00
9257;BME280;4665;51.368;6.782;2022-11-09T08:45:08;100543.22;;;12.93;100.00
9257;BME280;4665;51.368;6.782;2022-11-09T08:47:34;100550.22;;;12.94;100.00
9257;BME280;4665;51.368;6.782;2022-11-09T08:50:00;100540.00;;;12.98;100.00
9257;BME280;4665;51.368;6.782;2022-11-09T08:52:26;100552.03;;;13.02;100.00
9257;BME280;4665;51.368;6.782;2022-11-09T08:54:51;100557.31;;;13.10;100.00
9257;BME280;4665;51.368;6.782;2022-11-09T08:57:18;100559.81;;;13.12;100.00
9257;BME280;4665;51.368;6.782;2022-11-09T08:59:44;100561.47;;;13.13;100.00
9257;BME280;4665;51.368;6.782;2022-11-09T09:02:11;100553.09;;;13.16;100.00
9257;BME280;4665;51.368;6.782;2022-11-09T09:04:36;100557.09;;;13.20;100.00
9257;BME280;4665;51.368;6.782;2022-11-09T09:07:02;100555.06;;;13.22;100.00
9257;BME280;4665;51.368;6.782;2022-11-09T09:09:33;100560.72;;;13.27;100.00
9257;BME280;4665;51.368;6.782;2022-11-09T09:11:59;100559.03;;;13.34;100.00
9257;BME280;4665;51.368;6.782;2022-11-09T09:14:25;100556.84;;;13.38;100.00
9257;BME280;4665;51.368;6.782;2022-11-09T09:16:51;100559.81;;;13.43;100.00
9257;BME280;4665;51.368;6.782;2022-11-09T09:19:17;100561.13;;;13.47;100.00
9257;BME280;4665;51.368;6.782;2022-11-09T09:21:42;100560.59;;;13.52;100.00
9257;BME280;4665;51.368;6.782;2022-11-09T09:24:08;100563.72;;;13.55;100.00
9257;BME280;4665;51.368;6.782;2022-11-09T09:26:33;100559.22;;;13.56;100.00
9257;BME280;4665;51.368;6.782;2022-11-09T09:28:59;100565.22;;;13.58;100.00
9257;BME280;4665;51.368;6.782;2022-11-09T09:31:24;100561.69;;;13.57;100.00
9257;BME280;4665;51.368;6.782;2022-11-09T09:33:50;100565.84;;;13.60;100.00
9257;BME280;4665;51.368;6.782;2022-11-09T09:36:18;100566.34;;;13.63;100.00
9257;BME280;4665;51.368;6.782;2022-11-09T09:38:44;100570.66;;;13.64;100.00
9257;BME280;4665;51.368;6.782;2022-11-09T09:41:36;100573.34;;;13.64;100.00
9257;BME280;4665;51.368;6.782;2022-11-09T09:49:31;100582.34;;;13.72;100.00
9257;BME280;4665;51.368;6.782;2022-11-09T09:55:02;100595.72;;;13.72;100.00
9257;BME280;4665;51.368;6.782;2022-11-09T09:57:29;100596.19;;;13.75;100.00
9257;BME280;4665;51.368;6.782;2022-11-09T09:59:59;100593.78;;;13.80;100.00
9257;BME280;4665;51.368;6.782;2022-11-09T10:02:30;100601.50;;;13.83;100.00
9257;BME280;4665;51.368;6.782;2022-11-09T10:05:00;100603.13;;;13.84;100.00
9257;BME280;4665;51.368;6.782;2022-11-09T10:07:36;100606.31;;;13.88;100.00
9257;BME280;4665;51.368;6.782;2022-11-09T10:21:30;100608.13;;;14.25;100.00
9257;BME280;4665;51.368;6.782;2022-11-09T10:26:42;100606.19;;;14.34;100.00
9257;BME280;4665;51.368;6.782;2022-11-09T10:29:19;100605.25;;;14.27;100.00
9257;BME280;4665;51.368;6.782;2022-11-09T10:31:47;100610.16;;;14.23;98.30
9257;BME280;4665;51.368;6.782;2022-11-09T10:34:22;100615.53;;;14.23;99.61
9257;BME280;4665;51.368;6.782;2022-11-09T10:36:56;100617.91;;;14.18;99.76
9257;BME280;4665;51.368;6.782;2022-11-09T10:39:25;100616.59;;;14.14;100.00
9257;BME280;4665;51.368;6.782;2022-11-09T10:41:54;100630.47;;;14.18;100.00
9257;BME280;4665;51.368;6.782;2022-11-09T10:44:19;100627.78;;;14.18;98.79
9257;BME280;4665;51.368;6.782;2022-11-09T10:47:08;100629.28;;;14.20;98.32
9257;BME280;4665;51.368;6.782;2022-11-09T10:49:35;100632.03;;;14.27;97.90
9257;BME280;4665;51.368;6.782;2022-11-09T10:52:01;100620.78;;;14.31;96.26
9257;BME280;4665;51.368;6.782;2022-11-09T10:54:36;100623.56;;;14.38;94.42
9257;BME280;4665;51.368;6.782;2022-11-09T11:07:22;100618.47;;;14.28;94.08
9257;BME280;4665;51.368;6.782;2022-11-09T11:09:47;100610.28;;;14.30;94.78
9257;BME280;4665;51.368;6.782;2022-11-09T11:12:17;100622.47;;;14.32;97.25
9257;BME280;4665;51.368;6.782;2022-11-09T11:14:46;100627.06;;;14.39;98.36
9257;BME280;4665;51.368;6.782;2022-11-09T11:17:37;100626.25;;;14.38;95.77
9257;BME280;4665;51.368;6.782;2022-11-09T11:20:33;100627.16;;;14.45;93.68
9257;BME280;4665;51.368;6.782;2022-11-09T11:23:19;100623.84;;;14.43;89.56
9257;BME280;4665;51.368;6.782;2022-11-09T11:31:01;100624.91;;;14.57;95.77
9257;BME280;4665;51.368;6.782;2022-11-09T11:33:27;100620.47;;;14.64;91.28
9257;BME280;4665;51.368;6.782;2022-11-09T11:44:29;100626.09;;;14.55;90.69
9257;BME280;4665;51.368;6.782;2022-11-09T11:47:01;100630.09;;;14.59;90.50
9257;BME280;4665;51.368;6.782;2022-11-09T11:49:50;100627.47;;;14.50;87.80
9257;BME280;4665;51.368;6.782;2022-11-09T12:20:49;100644.09;;;14.46;89.41
9257;BME280;4665;51.368;6.782;2022-11-09T12:28:41;100648.16;;;14.42;89.97
9257;BME280;4665;51.368;6.782;2022-11-09T12:31:30;100652.38;;;14.36;88.55
9257;BME280;4665;51.368;6.782;2022-11-09T12:34:23;100642.59;;;14.28;88.37
9257;BME280;4665;51.368;6.782;2022-11-09T12:36:55;100644.78;;;14.25;88.37
9257;BME280;4665;51.368;6.782;2022-11-09T12:42:04;100643.13;;;14.24;89.19
9257;BME280;4665;51.368;6.782;2022-11-09T12:44:41;100647.66;;;14.23;90.61
9257;BME280;4665;51.368;6.782;2022-11-09T12:47:14;100644.16;;;14.23;89.50
9257;BME280;4665;51.368;6.782;2022-11-09T12:49:43;100646.84;;;14.23;87.21
9257;BME280;4665;51.368;6.782;2022-11-09T12:52:14;100645.91;;;14.30;87.83
9257;BME280;4665;51.368;6.782;2022-11-09T12:54:47;100649.06;;;14.34;88.47
9257;BME280;4665;51.368;6.782;2022-11-09T12:57:20;100649.06;;;14.34;87.14
9257;BME280;4665;51.368;6.782;2022-11-09T12:59:51;100647.22;;;14.35;88.95
9257;BME280;4665;51.368;6.782;2022-11-09T13:02:51;100646.59;;;14.32;88.77
9257;BME280;4665;51.368;6.782;2022-11-09T13:05:29;100657.41;;;14.39;88.92
9257;BME280;4665;51.368;6.782;2022-11-09T13:08:06;100659.06;;;14.40;86.57
9257;BME280;4665;51.368;6.782;2022-11-09T13:10:38;100656.75;;;14.37;88.96
9257;BME280;4665;51.368;6.782;2022-11-09T13:13:19;100655.28;;;14.35;88.38
9257;BME280;4665;51.368;6.782;2022-11-09T13:23:53;100662.38;;;14.42;89.15
9257;BME280;4665;51.368;6.782;2022-11-09T13:43:15;100659.78;;;14.34;85.81
9257;BME280;4665;51.368;6.782;2022-11-09T13:45:57;100663.97;;;14.37;87.08
9257;BME280;4665;51.368;6.782;2022-11-09T13:48:43;100659.97;;;14.32;87.84
9257;BME280;4665;51.368;6.782;2022-11-09T13:56:38;100671.94;;;14.22;86.15
9257;BME280;4665;51.368;6.782;2022-11-09T13:59:19;100679.69;;;14.17;85.30
9257;BME280;4665;51.368;6.782;2022-11-09T14:01:51;100693.63;;;14.12;86.08
9257;BME280;4665;51.368;6.782;2022-11-09T14:04:38;100691.31;;;14.09;87.20
9257;BME280;4665;51.368;6.782;2022-11-09T14:07:27;100693.16;;;14.08;88.07
9257;BME280;4665;51.368;6.782;2022-11-09T14:20:52;100704.13;;;13.99;90.63
9257;BME280;4665;51.368;6.782;2022-11-09T14:23:22;100700.31;;;13.93;90.46
9257;BME280;4665;51.368;6.782;2022-11-09T14:25:48;100710.19;;;13.93;90.85
9257;BME280;4665;51.368;6.782;2022-11-09T14:28:20;100714.53;;;13.94;89.70
9257;BME280;4665;51.368;6.782;2022-11-09T14:30:46;100719.22;;;13.92;90.95
9257;BME280;4665;51.368;6.782;2022-11-09T14:33:24;100730.84;;;13.84;93.88
9257;BME280;4665;51.368;6.782;2022-11-09T14:35:55;100738.38;;;13.80;94.32
9257;BME280;4665;51.368;6.782;2022-11-09T14:38:25;100725.06;;;13.72;95.68
9257;BME280;4665;51.368;6.782;2022-11-09T14:40:53;100736.41;;;13.74;95.01
9257;BME280;4665;51.368;6.782;2022-11-09T14:45:52;100737.41;;;13.73;96.24
9257;BME280;4665;51.368;6.782;2022-11-09T14:48:20;100739.09;;;13.74;95.14
9257;BME280;4665;51.368;6.782;2022-11-09T14:50:46;100745.44;;;13.73;96.07
9257;BME280;4665;51.368;6.782;2022-11-09T14:53:25;100748.47;;;13.70;96.74
9257;BME280;4665;51.368;6.782;2022-11-09T14:55:53;100749.66;;;13.67;97.39
9257;BME280;4665;51.368;6.782;2022-11-09T14:58:20;100746.84;;;13.61;98.00
9257;BME280;4665;51.368;6.782;2022-11-09T15:01:19;100757.72;;;13.59;98.51
9257;BME280;4665;51.368;6.782;2022-11-09T15:06:33;100765.44;;;13.54;98.43
9257;BME280;4665;51.368;6.782;2022-11-09T15:09:01;100767.47;;;13.52;99.57
9257;BME280;4665;51.368;6.782;2022-11-09T15:11:34;100777.34;;;13.52;100.00
9257;BME280;4665;51.368;6.782;2022-11-09T15:16:45;100799.78;;;13.42;100.00
9257;BME280;4665;51.368;6.782;2022-11-09T15:19:28;100783.94;;;13.33;100.00
9257;BME280;4665;51.368;6.782;2022-11-09T15:21:54;100785.78;;;13.24;100.00
9257;BME280;4665;51.368;6.782;2022-11-09T15:24:21;100799.50;;;13.21;100.00